sensor_id;sensor_type;location;lat;lon;timestamp;pressure;altitude;pressure_sealevel;temperature;humidity
6096;BME280;25081;42.698;23.298;2023-05-10T00:00:41;95520.66;;;8.45;100.00
6096;BME280;25081;42.698;23.298;2023-05-10T00:02:52;95516.36;;;8.44;100.00
6096;BME280;25081;42.698;23.298;2023-05-10T00:05:03;95519.22;;;8.42;100.00
6096;BME280;25081;42.698;23.298;2023-05-10T00:07:14;95507.16;;;8.40;100.00
6096;BME280;25081;42.698;23.298;2023-05-10T00:09:24;95514.22;;;8.43;100.00
6096;BME280;25081;42.698;23.298;2023-05-10T00:11:35;95519.94;;;8.47;100.00
6096;BME280;25081;42.698;23.298;2023-05-10T00:13:45;95517.34;;;8.36;100.00
6096;BME280;25081;42.698;23.298;2023-05-10T00:15:56;95507.58;;;8.43;100.00
6096;BME280;25081;42.698;23.298;2023-05-10T00:18:06;95508.31;;;8.30;100.00
6096;BME280;25081;42.698;23.298;2023-05-10T00:20:17;95501.27;;;8.33;100.00
6096;BME280;25081;42.698;23.298;2023-05-10T00:22:27;95502.02;;;8.38;100.00
6096;BME280;25081;42.698;23.298;2023-05-10T00:24:38;95509.30;;;8.23;100.00
6096;BME280;25081;42.698;23.298;2023-05-10T00:26:48;95497.55;;;8.21;100.00
6096;BME280;25081;42.698;23.298;2023-05-10T00:28:59;95515.73;;;8.24;100.00
6096;BME280;25081;42.698;23.298;2023-05-10T00:31:09;95505.68;;;8.13;100.00
6096;BME280;25081;42.698;23.298;2023-05-10T00:33:20;95504.92;;;8.09;100.00
6096;BME280;25081;42.698;23.298;2023-05-10T00:35:31;95505.08;;;8.18;100.00
6096;BME280;25081;42.698;23.298;2023-05-10T00:37:41;95506.95;;;8.24;100.00
6096;BME280;25081;42.698;23.298;2023-05-10T00:39:52;95507.42;;;8.17;100.00
6096;BME280;25081;42.698;23.298;2023-05-10T00:42:02;95501.70;;;8.13;100.00
6096;BME280;25081;42.698;23.298;2023-05-10T00:44:13;95491.18;;;8.16;100.00
6096;BME280;25081;42.698;23.298;2023-05-10T00:46:23;95498.80;;;8.08;100.00
6096;BME280;25081;42.698;23.298;2023-05-10T00:48:34;95495.42;;;8.03;100.00
6096;BME280;25081;42.698;23.298;2023-05-10T00:50:44;95496.66;;;8.08;100.00
6096;BME280;25081;42.698;23.298;2023-05-10T00:52:55;95501.14;;;8.07;100.00
6096;BME280;25081;42.698;23.298;2023-05-10T00:55:07;95490.36;;;8.15;100.00
6096;BME280;25081;42.698;23.298;2023-05-10T00:57:18;95492.47;;;8.09;100.00
6096;BME280;25081;42.698;23.298;2023-05-10T00:59:29;95493.54;;;7.97;100.00
6096;BME280;25081;42.698;23.298;2023-05-10T01:01:39;95494.25;;;7.95;100.00
6096;BME280;25081;42.698;23.298;2023-05-10T01:03:50;95498.95;;;8.00;100.00
6096;BME280;25081;42.698;23.298;2023-05-10T01:06:01;95496.13;;;8.01;100.00
6096;BME280;25081;42.698;23.298;2023-05-10T01:08:11;95495.73;;;8.04;100.00
6096;BME280;25081;42.698;23.298;2023-05-10T01:10:22;95491.13;;;8.02;100.00
6096;BME280;25081;42.698;23.298;2023-05-10T01:12:33;95497.41;;;7.95;100.00
6096;BME280;25081;42.698;23.298;2023-05-10T01:14:43;95493.34;;;7.99;100.00
6096;BME280;25081;42.698;23.298;2023-05-10T01:16:54;95492.45;;;8.02;100.00
6096;BME280;25081;42.698;23.298;2023-05-10T01:19:05;95488.78;;;8.03;100.00
6096;BME280;25081;42.698;23.298;2023-05-10T01:21:21;95494.56;;;7.96;100.00
6096;BME280;25081;42.698;23.298;2023-05-10T01:23:38;95492.01;;;7.99;100.00
6096;BME280;25081;42.698;23.298;2023-05-10T01:31:25;95483.38;;;7.84;100.00
6096;BME280;25081;42.698;23.298;2023-05-10T01:33:36;95482.16;;;7.86;100.00
6096;BME280;25081;42.698;23.298;2023-05-10T01:35:50;95484.80;;;7.86;100.00
6096;BME280;25081;42.698;23.298;2023-05-10T01:38:01;95477.55;;;7.84;100.00
6096;BME280;25081;42.698;23.298;2023-05-10T01:40:13;95470.11;;;7.90;100.00
6096;BME280;25081;42.698;23.298;2023-05-10T01:42:23;95470.52;;;7.87;100.00
6096;BME280;25081;42.698;23.298;2023-05-10T01:44:35;95469.55;;;7.78;100.00
6096;BME280;25081;42.698;23.298;2023-05-10T01:46:45;95469.08;;;7.85;100.00
6096;BME280;25081;42.698;23.298;2023-05-10T01:48:55;95461.12;;;7.85;100.00
6096;BME280;25081;42.698;23.298;2023-05-10T01:51:06;95459.75;;;7.78;100.00
6096;BME280;25081;42.698;23.298;2023-05-10T01:53:17;95462.09;;;7.77;100.00
6096;BME280;25081;42.698;23.298;2023-05-10T01:55:28;95456.47;;;7.76;100.00
6096;BME280;25081;42.698;23.298;2023-05-10T01:57:38;95461.98;;;7.74;100.00
6096;BME280;25081;42.698;23.298;2023-05-10T01:59:49;95461.38;;;7.79;100.00
6096;BME280;25081;42.698;23.298;2023-05-10T02:02:00;95463.67;;;7.82;100.00
6096;BME280;25081;42.698;23.298;2023-05-10T02:04:11;95465.92;;;7.85;100.00
6096;BME280;25081;42.698;23.298;2023-05-10T02:06:22;95465.77;;;7.76;100.00
6096;BME280;25081;42.698;23.298;2023-05-10T02:08:32;95468.02;;;7.79;100.00
6096;BME280;25081;42.698;23.298;2023-05-10T02:10:43;95472.45;;;7.83;100.00
6096;BME280;25081;42.698;23.298;2023-05-10T02:12:53;95466.69;;;7.79;100.00
6096;BME280;25081;42.698;23.298;2023-05-10T02:15:06;95472.09;;;7.75;100.00
6096;BME280;25081;42.698;23.298;2023-05-10T02:17:16;95466.78;;;7.75;100.00
6096;BME280;25081;42.698;23.298;2023-05-10T02:19:27;95470.14;;;7.73;100.00
6096;BME280;25081;42.698;23.298;2023-05-10T02:21:38;95467.86;;;7.70;99.76
6096;BME280;25081;42.698;23.298;2023-05-10T02:23:49;95475.09;;;7.65;97.80
6096;BME280;25081;42.698;23.298;2023-05-10T02:25:59;95470.86;;;7.60;95.81
6096;BME280;25081;42.698;23.298;2023-05-10T02:28:10;95468.64;;;7.46;94.27
6096;BME280;25081;42.698;23.298;2023-05-10T02:30:20;95469.46;;;7.47;95.18
6096;BME280;25081;42.698;23.298;2023-05-10T02:32:31;95481.17;;;7.31;91.99
6096;BME280;25081;42.698;23.298;2023-05-10T02:34:41;95469.83;;;7.27;92.32
6096;BME280;25081;42.698;23.298;2023-05-10T02:36:52;95467.00;;;7.17;90.45
6096;BME280;25081;42.698;23.298;2023-05-10T02:41:24;95451.03;;;7.11;91.76
6096;BME280;25081;42.698;23.298;2023-05-10T02:43:35;95464.69;;;7.08;91.80
6096;BME280;25081;42.698;23.298;2023-05-10T02:45:46;95461.92;;;7.05;91.08
6096;BME280;25081;42.698;23.298;2023-05-10T02:47:57;95475.28;;;7.08;91.46
6096;BME280;25081;42.698;23.298;2023-05-10T02:50:09;95462.16;;;7.00;91.07
6096;BME280;25081;42.698;23.298;2023-05-10T02:52:22;95462.55;;;6.97;89.80
6096;BME280;25081;42.698;23.298;2023-05-10T02:54:33;95457.61;;;6.94;88.69
6096;BME280;25081;42.698;23.298;2023-05-10T02:56:48;95461.23;;;6.97;87.33
6096;BME280;25081;42.698;23.298;2023-05-10T02:58:54;95467.27;;;7.01;85.67
6096;BME280;25081;42.698;23.298;2023-05-10T03:01:04;95461.59;;;6.94;86.71
6096;BME280;25081;42.698;23.298;2023-05-10T03:03:15;95465.71;;;6.96;87.90
6096;BME280;25081;42.698;23.298;2023-05-10T03:05:25;95475.93;;;6.88;87.38
6096;BME280;25081;42.698;23.298;2023-05-10T03:07:36;95474.53;;;6.93;87.59
6096;BME280;25081;42.698;23.298;2023-05-10T03:09:47;95469.73;;;6.92;87.06
6096;BME280;25081;42.698;23.298;2023-05-10T03:12:00;95471.19;;;6.84;85.06
6096;BME280;25081;42.698;23.298;2023-05-10T03:14:13;95461.41;;;6.84;85.11
6096;BME280;25081;42.698;23.298;2023-05-10T03:16:22;95478.47;;;6.86;85.54
6096;BME280;25081;42.698;23.298;2023-05-10T03:18:35;95466.97;;;6.89;86.83
6096;BME280;25081;42.698;23.298;2023-05-10T03:20:46;95467.60;;;6.81;86.21
6096;BME280;25081;42.698;23.298;2023-05-10T03:23:00;95477.38;;;6.80;86.84
6096;BME280;25081;42.698;23.298;2023-05-10T03:25:08;95468.22;;;6.83;87.57
6096;BME280;25081;42.698;23.298;2023-05-10T03:27:18;95474.84;;;6.94;87.45
6096;BME280;25081;42.698;23.298;2023-05-10T03:29:29;95476.63;;;6.97;88.54
6096;BME280;25081;42.698;23.298;2023-05-10T03:31:40;95485.25;;;6.84;88.24
6096;BME280;25081;42.698;23.298;2023-05-10T03:33:51;95482.28;;;6.94;89.18
6096;BME280;25081;42.698;23.298;2023-05-10T03:36:01;95482.13;;;6.96;88.91
6096;BME280;25081;42.698;23.298;2023-05-10T03:38:12;95479.02;;;6.92;89.98
6096;BME280;25081;42.698;23.298;2023-05-10T03:40:22;95454.91;;;6.98;89.51
6096;BME280;25081;42.698;23.298;2023-05-10T03:42:33;95486.66;;;6.91;88.08
6096;BME280;25081;42.698;23.298;2023-05-10T03:44:43;95489.87;;;6.97;88.75
6096;BME280;25081;42.698;23.298;2023-05-10T03:46:54;95481.84;;;7.01;88.76
6096;BME280;25081;42.698;23.298;2023-05-10T03:49:04;95486.33;;;7.01;89.29
6096;BME280;25081;42.698;23.298;2023-05-10T03:51:15;95493.78;;;6.91;87.68
6096;BME280;25081;42.698;23.298;2023-05-10T03:53:25;95492.45;;;6.91;87.71
6096;BME280;25081;42.698;23.298;2023-05-10T03:55:36;95493.86;;;6.86;87.22
6096;BME280;25081;42.698;23.298;2023-05-10T03:57:46;95494.88;;;6.85;87.19
6096;BME280;25081;42.698;23.298;2023-05-10T03:59:57;95501.85;;;6.82;88.03
6096;BME280;25081;42.698;23.298;2023-05-10T04:02:08;95498.89;;;6.81;87.32
6096;BME280;25081;42.698;23.298;2023-05-10T04:04:19;95496.94;;;6.90;88.14
6096;BME280;25081;42.698;23.298;2023-05-10T04:06:29;95505.52;;;6.81;87.64
6096;BME280;25081;42.698;23.298;2023-05-10T04:08:40;95504.38;;;6.91;87.18
6096;BME280;25081;42.698;23.298;2023-05-10T04:10:50;95502.67;;;6.94;86.57
6096;BME280;25081;42.698;23.298;2023-05-10T04:13:01;95508.55;;;7.00;86.55
6096;BME280;25081;42.698;23.298;2023-05-10T04:15:12;95510.88;;;7.09;87.12
6096;BME280;25081;42.698;23.298;2023-05-10T04:17:22;95508.94;;;6.86;87.32
6096;BME280;25081;42.698;23.298;2023-05-10T04:19:33;95507.47;;;6.83;87.26
6096;BME280;25081;42.698;23.298;2023-05-10T04:21:43;95510.93;;;6.73;88.53
6096;BME280;25081;42.698;23.298;2023-05-10T04:23:54;95513.66;;;6.80;89.01
6096;BME280;25081;42.698;23.298;2023-05-10T04:26:04;95510.77;;;6.85;89.12
6096;BME280;25081;42.698;23.298;2023-05-10T04:28:15;95509.76;;;6.76;88.53
6096;BME280;25081;42.698;23.298;2023-05-10T04:30:25;95513.66;;;6.80;89.16
6096;BME280;25081;42.698;23.298;2023-05-10T04:32:36;95516.31;;;6.80;89.27
6096;BME280;25081;42.698;23.298;2023-05-10T04:34:47;95517.24;;;6.83;88.73
6096;BME280;25081;42.698;23.298;2023-05-10T04:36:58;95516.38;;;6.86;89.19
6096;BME280;25081;42.698;23.298;2023-05-10T04:39:08;95513.58;;;6.84;88.86
6096;BME280;25081;42.698;23.298;2023-05-10T04:41:21;95528.16;;;6.73;89.13
6096;BME280;25081;42.698;23.298;2023-05-10T04:43:32;95515.30;;;6.70;89.51
6096;BME280;25081;42.698;23.298;2023-05-10T04:45:42;95520.72;;;6.83;89.62
6096;BME280;25081;42.698;23.298;2023-05-10T04:47:53;95510.94;;;6.84;88.97
6096;BME280;25081;42.698;23.298;2023-05-10T04:50:06;95516.94;;;6.82;89.19
6096;BME280;25081;42.698;23.298;2023-05-10T04:52:17;95523.20;;;6.96;89.77
6096;BME280;25081;42.698;23.298;2023-05-10T04:54:27;95515.69;;;6.88;89.61
6096;BME280;25081;42.698;23.298;2023-05-10T04:56:38;95521.05;;;7.06;89.06
6096;BME280;25081;42.698;23.298;2023-05-10T04:58:48;95517.23;;;7.04;88.31
6096;BME280;25081;42.698;23.298;2023-05-10T05:00:59;95511.50;;;7.11;88.77
6096;BME280;25081;42.698;23.298;2023-05-10T05:03:09;95512.88;;;7.29;88.58
6096;BME280;25081;42.698;23.298;2023-05-10T05:05:20;95523.02;;;7.46;87.70
6096;BME280;25081;42.698;23.298;2023-05-10T05:07:30;95526.20;;;7.14;86.86
6096;BME280;25081;42.698;23.298;2023-05-10T05:09:41;95517.50;;;7.09;87.51
6096;BME280;25081;42.698;23.298;2023-05-10T05:11:51;95527.80;;;6.98;88.06
6096;BME280;25081;42.698;23.298;2023-05-10T05:14:02;95517.94;;;7.13;88.80
6096;BME280;25081;42.698;23.298;2023-05-10T05:16:13;95524.70;;;7.15;88.85
6096;BME280;25081;42.698;23.298;2023-05-10T05:18:23;95525.22;;;7.15;88.29
6096;BME280;25081;42.698;23.298;2023-05-10T05:20:34;95516.69;;;7.09;87.05
6096;BME280;25081;42.698;23.298;2023-05-10T05:22:44;95528.30;;;7.08;88.00
6096;BME280;25081;42.698;23.298;2023-05-10T05:24:55;95528.69;;;7.15;87.43
6096;BME280;25081;42.698;23.298;2023-05-10T05:27:06;95521.73;;;7.25;87.02
6096;BME280;25081;42.698;23.298;2023-05-10T05:29:16;95532.11;;;7.48;87.53
6096;BME280;25081;42.698;23.298;2023-05-10T05:31:27;95526.83;;;7.37;86.28
6096;BME280;25081;42.698;23.298;2023-05-10T05:33:37;95531.50;;;7.14;87.99
6096;BME280;25081;42.698;23.298;2023-05-10T05:35:48;95534.84;;;7.23;88.66
6096;BME280;25081;42.698;23.298;2023-05-10T05:37:58;95541.13;;;7.15;88.72
6096;BME280;25081;42.698;23.298;2023-05-10T05:40:13;95534.92;;;7.18;88.84
6096;BME280;25081;42.698;23.298;2023-05-10T05:42:23;95540.84;;;7.21;89.04
6096;BME280;25081;42.698;23.298;2023-05-10T05:44:34;95533.48;;;7.05;89.74
6096;BME280;25081;42.698;23.298;2023-05-10T05:46:45;95531.08;;;7.10;89.82
6096;BME280;25081;42.698;23.298;2023-05-10T05:48:55;95537.69;;;7.21;90.42
6096;BME280;25081;42.698;23.298;2023-05-10T05:51:06;95537.89;;;7.20;90.01
6096;BME280;25081;42.698;23.298;2023-05-10T05:53:16;95541.67;;;7.21;89.79
6096;BME280;25081;42.698;23.298;2023-05-10T05:55:27;95548.49;;;7.20;88.96
6096;BME280;25081;42.698;23.298;2023-05-10T05:57:38;95541.17;;;7.11;90.18
6096;BME280;25081;42.698;23.298;2023-05-10T05:59:48;95550.25;;;7.23;91.01
6096;BME280;25081;42.698;23.298;2023-05-10T06:01:59;95546.66;;;7.20;90.93
6096;BME280;25081;42.698;23.298;2023-05-10T06:04:10;95546.92;;;7.25;91.02
6096;BME280;25081;42.698;23.298;2023-05-10T06:06:20;95549.25;;;7.35;91.71
6096;BME280;25081;42.698;23.298;2023-05-10T06:08:31;95552.97;;;7.30;91.14
6096;BME280;25081;42.698;23.298;2023-05-10T06:10:41;95550.03;;;7.57;91.37
6096;BME280;25081;42.698;23.298;2023-05-10T06:12:52;95553.85;;;7.37;89.59
6096;BME280;25081;42.698;23.298;2023-05-10T06:15:04;95553.17;;;7.17;90.46
6096;BME280;25081;42.698;23.298;2023-05-10T06:17:14;95553.80;;;7.20;91.34
6096;BME280;25081;42.698;23.298;2023-05-10T06:19:25;95554.09;;;7.31;91.30
6096;BME280;25081;42.698;23.298;2023-05-10T06:21:35;95560.41;;;7.30;90.61
6096;BME280;25081;42.698;23.298;2023-05-10T06:23:46;95555.09;;;7.41;89.79
6096;BME280;25081;42.698;23.298;2023-05-10T06:26:01;95555.23;;;7.33;89.86
6096;BME280;25081;42.698;23.298;2023-05-10T06:28:15;95559.52;;;7.55;90.15
6096;BME280;25081;42.698;23.298;2023-05-10T06:30:27;95566.23;;;7.30;89.44
6096;BME280;25081;42.698;23.298;2023-05-10T06:32:37;95558.03;;;7.25;88.65
6096;BME280;25081;42.698;23.298;2023-05-10T06:34:48;95559.72;;;7.22;89.18
6096;BME280;25081;42.698;23.298;2023-05-10T06:36:58;95563.16;;;7.93;88.37
6096;BME280;25081;42.698;23.298;2023-05-10T06:39:09;95562.43;;;7.78;87.69
6096;BME280;25081;42.698;23.298;2023-05-10T06:41:19;95560.70;;;7.63;87.31
6096;BME280;25081;42.698;23.298;2023-05-10T06:43:30;95554.08;;;7.42;87.68
6096;BME280;25081;42.698;23.298;2023-05-10T06:45:41;95555.41;;;7.42;86.76
6096;BME280;25081;42.698;23.298;2023-05-10T06:47:51;95557.70;;;7.45;85.84
6096;BME280;25081;42.698;23.298;2023-05-10T06:50:02;95557.17;;;7.56;86.10
6096;BME280;25081;42.698;23.298;2023-05-10T06:52:13;95565.05;;;7.60;86.16
6096;BME280;25081;42.698;23.298;2023-05-10T06:54:23;95555.48;;;7.77;86.01
6096;BME280;25081;42.698;23.298;2023-05-10T06:56:34;95561.78;;;7.86;86.38
6096;BME280;25081;42.698;23.298;2023-05-10T06:58:44;95559.16;;;8.10;86.44
6096;BME280;25081;42.698;23.298;2023-05-10T07:00:55;95572.25;;;7.94;84.89
6096;BME280;25081;42.698;23.298;2023-05-10T07:03:05;95578.41;;;7.84;84.35
6096;BME280;25081;42.698;23.298;2023-05-10T07:05:16;95571.13;;;7.93;85.14
6096;BME280;25081;42.698;23.298;2023-05-10T07:07:26;95577.22;;;7.76;84.48
6096;BME280;25081;42.698;23.298;2023-05-10T07:09:37;95572.08;;;7.57;84.92
6096;BME280;25081;42.698;23.298;2023-05-10T07:11:48;95575.61;;;7.64;85.24
6096;BME280;25081;42.698;23.298;2023-05-10T07:13:58;95577.89;;;7.57;84.47
6096;BME280;25081;42.698;23.298;2023-05-10T07:16:09;95571.13;;;7.65;84.51
6096;BME280;25081;42.698;23.298;2023-05-10T07:18:19;95572.03;;;7.79;84.97
6096;BME280;25081;42.698;23.298;2023-05-10T07:20:30;95575.36;;;7.87;84.75
6096;BME280;25081;42.698;23.298;2023-05-10T07:22:40;95568.36;;;7.80;82.99
6096;BME280;25081;42.698;23.298;2023-05-10T07:24:51;95568.36;;;7.80;83.67
6096;BME280;25081;42.698;23.298;2023-05-10T07:27:01;95576.45;;;7.71;83.44
6096;BME280;25081;42.698;23.298;2023-05-10T07:29:12;95580.30;;;7.80;83.93
6096;BME280;25081;42.698;23.298;2023-05-10T07:31:22;95580.95;;;7.82;82.84
6096;BME280;25081;42.698;23.298;2023-05-10T07:33:33;95589.03;;;7.84;82.52
6096;BME280;25081;42.698;23.298;2023-05-10T07:35:43;95581.60;;;7.73;82.46
6096;BME280;25081;42.698;23.298;2023-05-10T07:37:54;95581.13;;;7.80;82.71
6096;BME280;25081;42.698;23.298;2023-05-10T07:40:07;95219.70;;;5.20;82.14
6096;BME280;25081;42.698;23.298;2023-05-10T07:42:18;95590.97;;;8.14;81.48
6096;BME280;25081;42.698;23.298;2023-05-10T07:44:28;95586.17;;;7.86;82.21
6096;BME280;25081;42.698;23.298;2023-05-10T07:46:39;95590.75;;;7.98;82.44
6096;BME280;25081;42.698;23.298;2023-05-10T07:48:50;95589.33;;;8.13;82.48
6096;BME280;25081;42.698;23.298;2023-05-10T07:51:00;95588.53;;;8.19;81.47
6096;BME280;25081;42.698;23.298;2023-05-10T07:53:11;95591.55;;;7.92;82.37
6096;BME280;25081;42.698;23.298;2023-05-10T07:55:21;95592.16;;;7.94;81.95
6096;BME280;25081;42.698;23.298;2023-05-10T07:57:32;95572.81;;;7.90;81.67
6096;BME280;25081;42.698;23.298;2023-05-10T07:59:42;95596.75;;;8.24;81.88
6096;BME280;25081;42.698;23.298;2023-05-10T08:01:53;95593.42;;;8.16;81.09
6096;BME280;25081;42.698;23.298;2023-05-10T08:04:04;95594.89;;;8.36;81.42
6096;BME280;25081;42.698;23.298;2023-05-10T08:06:16;95590.34;;;8.40;81.44
6096;BME280;25081;42.698;23.298;2023-05-10T08:08:25;95592.63;;;8.50;81.38
6096;BME280;25081;42.698;23.298;2023-05-10T08:10:36;95598.18;;;8.27;81.53
6096;BME280;25081;42.698;23.298;2023-05-10T08:12:46;95591.06;;;8.45;80.25
6096;BME280;25081;42.698;23.298;2023-05-10T08:14:57;95588.25;;;8.36;80.33
6096;BME280;25081;42.698;23.298;2023-05-10T08:17:07;95591.66;;;8.40;80.21
6096;BME280;25081;42.698;23.298;2023-05-10T08:19:18;95593.20;;;8.45;79.69
6096;BME280;25081;42.698;23.298;2023-05-10T08:21:29;95588.66;;;8.56;79.56
6096;BME280;25081;42.698;23.298;2023-05-10T08:23:39;95590.50;;;8.56;78.15
6096;BME280;25081;42.698;23.298;2023-05-10T08:25:50;95590.84;;;8.64;78.59
6096;BME280;25081;42.698;23.298;2023-05-10T08:28:01;95597.89;;;8.60;79.21
6096;BME280;25081;42.698;23.298;2023-05-10T08:30:12;95588.59;;;8.60;79.87
6096;BME280;25081;42.698;23.298;2023-05-10T08:32:23;95598.98;;;8.55;78.86
6096;BME280;25081;42.698;23.298;2023-05-10T08:34:34;95595.14;;;8.65;80.18
6096;BME280;25081;42.698;23.298;2023-05-10T08:36:44;95604.95;;;8.64;80.42
6096;BME280;25081;42.698;23.298;2023-05-10T08:38:54;95590.71;;;8.78;80.83
6096;BME280;25081;42.698;23.298;2023-05-10T08:41:05;95594.45;;;9.04;82.03
6096;BME280;25081;42.698;23.298;2023-05-10T08:43:17;95594.15;;;9.03;80.43
6096;BME280;25081;42.698;23.298;2023-05-10T08:45:28;95593.85;;;8.78;79.69
6096;BME280;25081;42.698;23.298;2023-05-10T08:47:38;95591.82;;;8.56;79.90
6096;BME280;25081;42.698;23.298;2023-05-10T08:49:49;95599.58;;;8.51;80.24
6096;BME280;25081;42.698;23.298;2023-05-10T08:52:00;95609.25;;;8.30;81.09
6096;BME280;25081;42.698;23.298;2023-05-10T08:54:10;95613.91;;;8.28;82.08
6096;BME280;25081;42.698;23.298;2023-05-10T08:56:21;95604.66;;;8.46;82.50
6096;BME280;25081;42.698;23.298;2023-05-10T08:58:31;95594.58;;;8.35;82.33
6096;BME280;25081;42.698;23.298;2023-05-10T09:00:42;95596.64;;;8.39;81.70
6096;BME280;25081;42.698;23.298;2023-05-10T09:02:53;95609.91;;;8.22;81.83
6096;BME280;25081;42.698;23.298;2023-05-10T09:05:05;95600.36;;;8.45;82.36
6096;BME280;25081;42.698;23.298;2023-05-10T09:07:16;95607.09;;;8.41;80.88
6096;BME280;25081;42.698;23.298;2023-05-10T09:11:43;95604.25;;;8.31;81.30
6096;BME280;25081;42.698;23.298;2023-05-10T09:13:53;95603.63;;;8.47;82.20
6096;BME280;25081;42.698;23.298;2023-05-10T09:16:05;95600.77;;;8.66;81.79
6096;BME280;25081;42.698;23.298;2023-05-10T09:18:15;95608.42;;;8.65;80.95
6096;BME280;25081;42.698;23.298;2023-05-10T09:20:26;95600.83;;;8.79;80.67
6096;BME280;25081;42.698;23.298;2023-05-10T09:22:36;95600.02;;;8.85;80.48
6096;BME280;25081;42.698;23.298;2023-05-10T09:24:47;95600.88;;;8.92;80.59
6096;BME280;25081;42.698;23.298;2023-05-10T09:26:57;95592.97;;;8.81;80.30
6096;BME280;25081;42.698;23.298;2023-05-10T09:29:07;95590.30;;;8.57;81.07
6096;BME280;25081;42.698;23.298;2023-05-10T09:31:18;95590.55;;;8.45;81.01
6096;BME280;25081;42.698;23.298;2023-05-10T09:33:28;95610.94;;;8.55;80.46
6096;BME280;25081;42.698;23.298;2023-05-10T09:35:39;95594.73;;;8.44;80.51
6096;BME280;25081;42.698;23.298;2023-05-10T09:37:50;95609.14;;;8.45;80.21
6096;BME280;25081;42.698;23.298;2023-05-10T09:40:00;95593.76;;;8.51;80.45
6096;BME280;25081;42.698;23.298;2023-05-10T09:42:10;95587.02;;;8.55;80.23
6096;BME280;25081;42.698;23.298;2023-05-10T09:44:21;95593.91;;;8.60;80.28
6096;BME280;25081;42.698;23.298;2023-05-10T09:46:32;95582.44;;;8.84;79.66
6096;BME280;25081;42.698;23.298;2023-05-10T09:48:43;95589.63;;;8.90;80.05
6096;BME280;25081;42.698;23.298;2023-05-10T09:50:58;95582.84;;;9.18;78.51
6096;BME280;25081;42.698;23.298;2023-05-10T09:53:08;95588.98;;;9.18;78.31
6096;BME280;25081;42.698;23.298;2023-05-10T09:55:19;95588.28;;;9.34;77.81
6096;BME280;25081;42.698;23.298;2023-05-10T09:57:30;95590.37;;;9.01;78.72
6096;BME280;25081;42.698;23.298;2023-05-10T09:59:41;95590.54;;;8.93;78.41
6096;BME280;25081;42.698;23.298;2023-05-10T10:01:54;95578.17;;;8.96;78.14
6096;BME280;25081;42.698;23.298;2023-05-10T10:04:05;95571.22;;;8.88;78.38
6096;BME280;25081;42.698;23.298;2023-05-10T10:06:19;95570.32;;;8.99;77.96
6096;BME280;25081;42.698;23.298;2023-05-10T10:08:30;95568.30;;;9.14;78.08
6096;BME280;25081;42.698;23.298;2023-05-10T10:10:41;95572.00;;;8.82;77.99
6096;BME280;25081;42.698;23.298;2023-05-10T10:12:51;95571.78;;;9.08;78.21
6096;BME280;25081;42.698;23.298;2023-05-10T10:15:01;95572.91;;;9.09;77.31
6096;BME280;25081;42.698;23.298;2023-05-10T10:17:12;95557.72;;;8.90;78.25
6096;BME280;25081;42.698;23.298;2023-05-10T10:19:22;95552.91;;;8.96;77.98
6096;BME280;25081;42.698;23.298;2023-05-10T10:21:32;95555.00;;;9.07;77.44
6096;BME280;25081;42.698;23.298;2023-05-10T10:23:43;95561.45;;;9.22;77.73
6096;BME280;25081;42.698;23.298;2023-05-10T10:25:54;95556.65;;;9.22;77.29
6096;BME280;25081;42.698;23.298;2023-05-10T10:28:23;95561.45;;;9.09;77.62
6096;BME280;25081;42.698;23.298;2023-05-10T10:30:31;95568.34;;;8.97;77.79
6096;BME280;25081;42.698;23.298;2023-05-10T10:32:46;95559.30;;;9.08;77.92
6096;BME280;25081;42.698;23.298;2023-05-10T10:34:54;95558.08;;;9.24;77.44
6096;BME280;25081;42.698;23.298;2023-05-10T10:37:06;95567.72;;;9.45;77.28
6096;BME280;25081;42.698;23.298;2023-05-10T10:39:16;95568.59;;;9.15;77.54
6096;BME280;25081;42.698;23.298;2023-05-10T10:41:33;95552.45;;;9.23;77.17
6096;BME280;25081;42.698;23.298;2023-05-10T10:43:43;95567.50;;;9.20;76.87
6096;BME280;25081;42.698;23.298;2023-05-10T10:48:40;95551.45;;;9.31;76.45
6096;BME280;25081;42.698;23.298;2023-05-10T10:50:57;95563.32;;;9.41;76.19
6096;BME280;25081;42.698;23.298;2023-05-10T10:53:12;95564.06;;;9.46;75.70
6096;BME280;25081;42.698;23.298;2023-05-10T10:55:23;95564.47;;;9.56;75.77
6096;BME280;25081;42.698;23.298;2023-05-10T10:57:42;95560.97;;;9.62;75.66
6096;BME280;25081;42.698;23.298;2023-05-10T10:59:44;95573.56;;;9.38;75.86
6096;BME280;25081;42.698;23.298;2023-05-10T11:01:54;95565.68;;;9.40;76.20
6096;BME280;25081;42.698;23.298;2023-05-10T11:04:20;95553.20;;;9.48;76.37
6096;BME280;25081;42.698;23.298;2023-05-10T11:06:31;95555.36;;;9.48;75.42
6096;BME280;25081;42.698;23.298;2023-05-10T11:08:44;95563.75;;;9.58;75.09
6096;BME280;25081;42.698;23.298;2023-05-10T11:11:05;95557.20;;;9.67;74.75
6096;BME280;25081;42.698;23.298;2023-05-10T11:13:17;95566.92;;;9.78;74.46
6096;BME280;25081;42.698;23.298;2023-05-10T11:15:30;95556.55;;;9.92;74.77
6096;BME280;25081;42.698;23.298;2023-05-10T11:17:41;95551.61;;;10.15;74.40
6096;BME280;25081;42.698;23.298;2023-05-10T11:20:13;95558.52;;;9.87;73.87
6096;BME280;25081;42.698;23.298;2023-05-10T11:22:22;95560.66;;;9.81;74.14
6096;BME280;25081;42.698;23.298;2023-05-10T11:24:32;95559.34;;;9.61;74.43
6096;BME280;25081;42.698;23.298;2023-05-10T11:26:43;95551.15;;;9.69;74.84
6096;BME280;25081;42.698;23.298;2023-05-10T11:28:53;95526.26;;;9.80;74.55
6096;BME280;25081;42.698;23.298;2023-05-10T11:31:05;95553.25;;;10.10;73.51
6096;BME280;25081;42.698;23.298;2023-05-10T11:33:18;95555.22;;;9.98;74.37
6096;BME280;25081;42.698;23.298;2023-05-10T11:35:29;95555.31;;;10.01;74.19
6096;BME280;25081;42.698;23.298;2023-05-10T11:37:40;95560.23;;;9.84;74.94
6096;BME280;25081;42.698;23.298;2023-05-10T11:39:51;95560.36;;;9.80;74.98
6096;BME280;25081;42.698;23.298;2023-05-10T11:42:01;95555.31;;;10.01;75.21
6096;BME280;25081;42.698;23.298;2023-05-10T11:44:12;95545.90;;;9.98;74.66
6096;BME280;25081;42.698;23.298;2023-05-10T11:46:23;95549.20;;;9.81;74.57
6096;BME280;25081;42.698;23.298;2023-05-10T11:48:33;95550.22;;;9.73;75.31
6096;BME280;25081;42.698;23.298;2023-05-10T11:50:44;95558.74;;;9.66;75.40
6096;BME280;25081;42.698;23.298;2023-05-10T11:52:55;95558.64;;;9.57;76.21
6096;BME280;25081;42.698;23.298;2023-05-10T11:55:07;95562.63;;;9.57;76.11